PWSweather.com
Personal Weather Stations
Station Observations
KOMOKA
Komoka Village, Komoka, ON N0L IRO

Komoka VillageKomoka, ON N0L IRO

Lat: 42.9542444, Lon: -81.4348861

Elevation: 805

Station Type: Davis Vantage Pro 2

www.komokaweather.com

High Low Average
Temperature 45.0°F7.2°C 41.5°F5.3°C 43.7°F6.5°C
Dew Point 34.9°F1.6°C 30.2°F-1.0°C 33.3°F0.7°C
Winds 9.0 mph 14.5 kmh 1.0 mph 1.6 kmh 5.0 mph N8.0 kmh N
Wind Gusts 27.0 mph43.5 kmh 3.0 mph4.8 kmh 15.0 mph24.1 kmh
Humidity 70% 60% 67%
Pressure 29.87 in1011.5 mb 29.55 in1000.7 mb -
Precipitation 0.45 in11.4 mm - -
Hour Temp Dew Point Humidity Winds Wind Gusts Pressure Precip Precip Rate Daily Precip Total
12:02 AM 42.4°F5.8°C 32.9°F0.5°C 69% 9.0 mph N14.5 kmh N 21.0 mph33.8 kmh 29.55 in1000.7 mb 0.06 in1.5 mm 1.80 in45.7 mm 0.06 in1.5 mm
12:09 AM 42.4°F5.8°C 32.9°F0.5°C 69% 9.0 mph N14.5 kmh N 21.0 mph33.8 kmh 29.55 in1000.7 mb 0.06 in1.5 mm 0.00 in0.0 mm 0.06 in1.5 mm
12:16 AM 42.4°F5.8°C 33.1°F0.6°C 69% 9.0 mph N14.5 kmh N 27.0 mph43.5 kmh 29.55 in1000.7 mb 0.06 in1.5 mm 0.00 in0.0 mm 0.07 in1.8 mm
12:23 AM 42.6°F5.9°C 33.1°F0.6°C 69% 9.0 mph N14.5 kmh N 27.0 mph43.5 kmh 29.55 in1000.7 mb 0.04 in1.0 mm 0.00 in0.0 mm 0.07 in1.8 mm
12:30 AM 42.4°F5.8°C 32.9°F0.5°C 69% 8.0 mph N12.9 kmh N 19.0 mph30.6 kmh 29.55 in1000.7 mb 0.04 in1.0 mm 0.00 in0.0 mm 0.08 in2.0 mm
12:37 AM 42.4°F5.8°C 33.3°F0.7°C 70% 7.0 mph N11.3 kmh N 20.0 mph32.2 kmh 29.55 in1000.7 mb 0.04 in1.0 mm 0.00 in0.0 mm 0.09 in2.3 mm
12:44 AM 42.4°F5.8°C 33.4°F0.8°C 70% 7.0 mph N11.3 kmh N 21.0 mph33.8 kmh 29.55 in1000.7 mb 0.04 in1.0 mm 0.00 in0.0 mm 0.09 in2.3 mm
12:51 AM 42.6°F5.9°C 33.4°F0.8°C 70% 8.0 mph N12.9 kmh N 21.0 mph33.8 kmh 29.56 in1001.0 mb 0.04 in1.0 mm 0.00 in0.0 mm 0.09 in2.3 mm
12:58 AM 42.8°F6.0°C 33.6°F0.9°C 70% 7.0 mph N11.3 kmh N 20.0 mph32.2 kmh 29.56 in1001.0 mb 0.04 in1.0 mm 0.00 in0.0 mm 0.10 in2.5 mm
01:05 AM 43.0°F6.1°C 33.8°F1.0°C 70% 9.0 mph N14.5 kmh N 20.0 mph32.2 kmh 29.56 in1001.0 mb 0.05 in1.3 mm 0.01 in0.3 mm 0.11 in2.8 mm
01:12 AM 43.0°F6.1°C 33.8°F1.0°C 70% 8.0 mph N12.9 kmh N 21.0 mph33.8 kmh 29.56 in1001.0 mb 0.04 in1.0 mm 0.00 in0.0 mm 0.11 in2.8 mm
01:19 AM 43.0°F6.1°C 33.8°F1.0°C 70% 8.0 mph N12.9 kmh N 24.0 mph38.6 kmh 29.56 in1001.0 mb 0.05 in1.3 mm 0.09 in2.3 mm 0.12 in3.0 mm
01:26 AM 43.0°F6.1°C 33.8°F1.0°C 70% 8.0 mph N12.9 kmh N 24.0 mph38.6 kmh 29.56 in1001.0 mb 0.06 in1.5 mm 0.09 in2.3 mm 0.13 in3.3 mm
01:33 AM 43.0°F6.1°C 33.8°F1.0°C 70% 7.0 mph N11.3 kmh N 17.0 mph27.4 kmh 29.56 in1001.0 mb 0.05 in1.3 mm 0.00 in0.0 mm 0.13 in3.3 mm
01:40 AM 43.0°F6.1°C 33.4°F0.8°C 69% 9.0 mph N14.5 kmh N 27.0 mph43.5 kmh 29.57 in1001.4 mb 0.05 in1.3 mm 0.00 in0.0 mm 0.14 in3.6 mm
01:47 AM 43.0°F6.1°C 33.4°F0.8°C 69% 9.0 mph N14.5 kmh N 20.0 mph32.2 kmh 29.57 in1001.4 mb 0.06 in1.5 mm 0.09 in2.3 mm 0.15 in3.8 mm
01:54 AM 43.0°F6.1°C 33.8°F1.0°C 70% 8.0 mph N12.9 kmh N 23.0 mph37.0 kmh 29.57 in1001.4 mb 0.06 in1.5 mm 0.00 in0.0 mm 0.16 in4.1 mm
02:01 AM 43.0°F6.1°C 33.8°F1.0°C 70% 7.0 mph N11.3 kmh N 24.0 mph38.6 kmh 29.57 in1001.4 mb 0.06 in1.5 mm 0.00 in0.0 mm 0.17 in4.3 mm
02:08 AM 43.0°F6.1°C 33.8°F1.0°C 70% 7.0 mph N11.3 kmh N 24.0 mph38.6 kmh 29.57 in1001.4 mb 0.06 in1.5 mm 0.00 in0.0 mm 0.17 in4.3 mm
02:15 AM 43.0°F6.1°C 33.8°F1.0°C 70% 9.0 mph N14.5 kmh N 24.0 mph38.6 kmh 29.57 in1001.4 mb 0.06 in1.5 mm 0.00 in0.0 mm 0.17 in4.3 mm
02:22 AM 43.0°F6.1°C 33.8°F1.0°C 70% 8.0 mph N12.9 kmh N 21.0 mph33.8 kmh 29.58 in1001.7 mb 0.06 in1.5 mm 0.00 in0.0 mm 0.18 in4.6 mm
02:29 AM 43.0°F6.1°C 33.8°F1.0°C 70% 7.0 mph N11.3 kmh N 16.0 mph25.7 kmh 29.58 in1001.7 mb 0.06 in1.5 mm 0.00 in0.0 mm 0.19 in4.8 mm
02:36 AM 43.0°F6.1°C 33.8°F1.0°C 70% 5.0 mph N8.0 kmh N 20.0 mph32.2 kmh 29.58 in1001.7 mb 0.06 in1.5 mm 0.00 in0.0 mm 0.20 in5.1 mm
02:43 AM 43.0°F6.1°C 33.8°F1.0°C 70% 7.0 mph N11.3 kmh N 19.0 mph30.6 kmh 29.58 in1001.7 mb 0.06 in1.5 mm 0.00 in0.0 mm 0.20 in5.1 mm
02:50 AM 43.0°F6.1°C 33.8°F1.0°C 70% 7.0 mph N11.3 kmh N 19.0 mph30.6 kmh 29.58 in1001.7 mb 0.06 in1.5 mm 0.00 in0.0 mm 0.20 in5.1 mm
02:57 AM 43.2°F6.2°C 34.0°F1.1°C 70% 7.0 mph N11.3 kmh N 19.0 mph30.6 kmh 29.58 in1001.7 mb 0.06 in1.5 mm 0.00 in0.0 mm 0.21 in5.3 mm
03:04 AM 43.2°F6.2°C 34.0°F1.1°C 70% 7.0 mph N11.3 kmh N 20.0 mph32.2 kmh 29.58 in1001.7 mb 0.05 in1.3 mm 0.00 in0.0 mm 0.21 in5.3 mm
03:11 AM 43.2°F6.2°C 34.2°F1.2°C 70% 8.0 mph N12.9 kmh N 20.0 mph32.2 kmh 29.59 in1002.0 mb 0.05 in1.3 mm 0.00 in0.0 mm 0.22 in5.6 mm
03:18 AM 43.2°F6.2°C 34.0°F1.1°C 70% 7.0 mph N11.3 kmh N 16.0 mph25.7 kmh 29.59 in1002.0 mb 0.05 in1.3 mm 0.00 in0.0 mm 0.23 in5.8 mm
03:25 AM 43.2°F6.2°C 34.0°F1.1°C 70% 7.0 mph N11.3 kmh N 20.0 mph32.2 kmh 29.59 in1002.0 mb 0.06 in1.5 mm 0.09 in2.3 mm 0.24 in6.1 mm
03:32 AM 43.2°F6.2°C 34.0°F1.1°C 70% 7.0 mph N11.3 kmh N 17.0 mph27.4 kmh 29.59 in1002.0 mb 0.05 in1.3 mm 0.00 in0.0 mm 0.24 in6.1 mm
03:39 AM 43.2°F6.2°C 34.2°F1.2°C 70% 7.0 mph N11.3 kmh N 19.0 mph30.6 kmh 29.59 in1002.0 mb 0.06 in1.5 mm 0.09 in2.3 mm 0.25 in6.4 mm
03:46 AM 43.2°F6.2°C 34.0°F1.1°C 70% 7.0 mph N11.3 kmh N 17.0 mph27.4 kmh 29.59 in1002.0 mb 0.06 in1.5 mm 0.00 in0.0 mm 0.26 in6.6 mm
03:53 AM 43.2°F6.2°C 34.0°F1.1°C 70% 8.0 mph N12.9 kmh N 21.0 mph33.8 kmh 29.59 in1002.0 mb 0.06 in1.5 mm 0.00 in0.0 mm 0.26 in6.6 mm
04:00 AM 43.0°F6.1°C 33.8°F1.0°C 70% 7.0 mph N11.3 kmh N 17.0 mph27.4 kmh 29.59 in1002.0 mb 0.06 in1.5 mm 0.00 in0.0 mm 0.27 in6.9 mm
04:07 AM 43.0°F6.1°C 33.8°F1.0°C 70% 5.0 mph N8.0 kmh N 16.0 mph25.7 kmh 29.59 in1002.0 mb 0.06 in1.5 mm 0.00 in0.0 mm 0.27 in6.9 mm
04:14 AM 43.2°F6.2°C 34.0°F1.1°C 70% 7.0 mph N11.3 kmh N 16.0 mph25.7 kmh 29.59 in1002.0 mb 0.05 in1.3 mm 0.00 in0.0 mm 0.28 in7.1 mm
04:21 AM 43.2°F6.2°C 34.2°F1.2°C 70% 8.0 mph N12.9 kmh N 23.0 mph37.0 kmh 29.59 in1002.0 mb 0.05 in1.3 mm 0.00 in0.0 mm 0.28 in7.1 mm
04:28 AM 43.2°F6.2°C 34.0°F1.1°C 70% 8.0 mph N12.9 kmh N 27.0 mph43.5 kmh 29.59 in1002.0 mb 0.05 in1.3 mm 0.00 in0.0 mm 0.29 in7.4 mm
04:35 AM 43.2°F6.2°C 34.0°F1.1°C 70% 5.0 mph N8.0 kmh N 15.0 mph24.1 kmh 29.60 in1002.4 mb 0.05 in1.3 mm 0.00 in0.0 mm 0.29 in7.4 mm
04:42 AM 43.2°F6.2°C 34.2°F1.2°C 70% 7.0 mph N11.3 kmh N 19.0 mph30.6 kmh 29.60 in1002.4 mb 0.03 in0.8 mm 0.00 in0.0 mm 0.29 in7.4 mm
04:49 AM 43.2°F6.2°C 34.2°F1.2°C 70% 8.0 mph N12.9 kmh N 20.0 mph32.2 kmh 29.60 in1002.4 mb 0.03 in0.8 mm 0.00 in0.0 mm 0.29 in7.4 mm
04:56 AM 43.2°F6.2°C 33.8°F1.0°C 69% 8.0 mph N12.9 kmh N 19.0 mph30.6 kmh 29.60 in1002.4 mb 0.03 in0.8 mm 0.00 in0.0 mm 0.30 in7.6 mm
05:03 AM 43.2°F6.2°C 33.8°F1.0°C 69% 8.0 mph N12.9 kmh N 16.0 mph25.7 kmh 29.60 in1002.4 mb 0.03 in0.8 mm 0.00 in0.0 mm 0.30 in7.6 mm
05:10 AM 43.3°F6.3°C 34.2°F1.2°C 70% 7.0 mph N11.3 kmh N 16.0 mph25.7 kmh 29.61 in1002.7 mb 0.03 in0.8 mm 0.00 in0.0 mm 0.30 in7.6 mm
05:17 AM 43.3°F6.3°C 34.2°F1.2°C 70% 5.0 mph N8.0 kmh N 15.0 mph24.1 kmh 29.61 in1002.7 mb 0.02 in0.5 mm 0.00 in0.0 mm 0.30 in7.6 mm
05:24 AM 43.3°F6.3°C 34.2°F1.2°C 70% 8.0 mph N12.9 kmh N 20.0 mph32.2 kmh 29.61 in1002.7 mb 0.02 in0.5 mm 0.00 in0.0 mm 0.31 in7.9 mm
05:31 AM 43.3°F6.3°C 34.2°F1.2°C 70% 8.0 mph N12.9 kmh N 20.0 mph32.2 kmh 29.61 in1002.7 mb 0.02 in0.5 mm 0.00 in0.0 mm 0.31 in7.9 mm
05:38 AM 43.3°F6.3°C 34.3°F1.3°C 70% 8.0 mph N12.9 kmh N 25.0 mph40.2 kmh 29.62 in1003.0 mb 0.02 in0.5 mm 0.00 in0.0 mm 0.31 in7.9 mm
05:45 AM 43.3°F6.3°C 34.2°F1.2°C 70% 8.0 mph N12.9 kmh N 25.0 mph40.2 kmh 29.62 in1003.0 mb 0.02 in0.5 mm 0.00 in0.0 mm 0.31 in7.9 mm
05:52 AM 43.3°F6.3°C 34.2°F1.2°C 70% 7.0 mph N11.3 kmh N 19.0 mph30.6 kmh 29.62 in1003.0 mb 0.02 in0.5 mm 0.00 in0.0 mm 0.31 in7.9 mm
05:59 AM 43.2°F6.2°C 34.2°F1.2°C 70% 7.0 mph N11.3 kmh N 16.0 mph25.7 kmh 29.63 in1003.4 mb 0.02 in0.5 mm 0.00 in0.0 mm 0.31 in7.9 mm
06:06 AM 43.3°F6.3°C 34.2°F1.2°C 70% 7.0 mph N11.3 kmh N 15.0 mph24.1 kmh 29.63 in1003.4 mb 0.02 in0.5 mm 0.00 in0.0 mm 0.31 in7.9 mm
06:13 AM 43.3°F6.3°C 34.2°F1.2°C 70% 5.0 mph N8.0 kmh N 15.0 mph24.1 kmh 29.63 in1003.4 mb 0.02 in0.5 mm 0.00 in0.0 mm 0.32 in8.1 mm
06:20 AM 43.2°F6.2°C 34.2°F1.2°C 70% 5.0 mph N8.0 kmh N 16.0 mph25.7 kmh 29.64 in1003.7 mb 0.02 in0.5 mm 0.00 in0.0 mm 0.32 in8.1 mm
06:27 AM 43.3°F6.3°C 34.2°F1.2°C 70% 7.0 mph N11.3 kmh N 15.0 mph24.1 kmh 29.64 in1003.7 mb 0.02 in0.5 mm 0.00 in0.0 mm 0.33 in8.4 mm
06:34 AM 43.2°F6.2°C 34.2°F1.2°C 70% 7.0 mph N11.3 kmh N 17.0 mph27.4 kmh 29.64 in1003.7 mb 0.02 in0.5 mm 0.00 in0.0 mm 0.33 in8.4 mm
06:41 AM 43.2°F6.2°C 34.0°F1.1°C 70% 5.0 mph N8.0 kmh N 17.0 mph27.4 kmh 29.65 in1004.1 mb 0.02 in0.5 mm 0.00 in0.0 mm 0.34 in8.6 mm
06:48 AM 43.2°F6.2°C 34.2°F1.2°C 70% 5.0 mph N8.0 kmh N 17.0 mph27.4 kmh 29.65 in1004.1 mb 0.02 in0.5 mm 0.00 in0.0 mm 0.34 in8.6 mm
06:55 AM 43.3°F6.3°C 34.2°F1.2°C 70% 5.0 mph N8.0 kmh N 15.0 mph24.1 kmh 29.65 in1004.1 mb 0.02 in0.5 mm 0.00 in0.0 mm 0.34 in8.6 mm
07:02 AM 43.2°F6.2°C 34.2°F1.2°C 70% 5.0 mph N8.0 kmh N 12.0 mph19.3 kmh 29.66 in1004.4 mb 0.02 in0.5 mm 0.00 in0.0 mm 0.34 in8.6 mm
07:09 AM 43.2°F6.2°C 34.2°F1.2°C 70% 5.0 mph N8.0 kmh N 12.0 mph19.3 kmh 29.66 in1004.4 mb 0.02 in0.5 mm 0.00 in0.0 mm 0.34 in8.6 mm
07:16 AM 43.2°F6.2°C 34.2°F1.2°C 70% 7.0 mph N11.3 kmh N 16.0 mph25.7 kmh 29.66 in1004.4 mb 0.06 in1.5 mm 0.34 in8.6 mm 0.38 in9.7 mm
07:23 AM 43.2°F6.2°C 34.2°F1.2°C 70% 7.0 mph N11.3 kmh N 16.0 mph25.7 kmh 29.67 in1004.7 mb 0.06 in1.5 mm 0.00 in0.0 mm 0.38 in9.7 mm
07:30 AM 43.2°F6.2°C 34.2°F1.2°C 70% 5.0 mph N8.0 kmh N 12.0 mph19.3 kmh 29.67 in1004.7 mb 0.05 in1.3 mm 0.00 in0.0 mm 0.38 in9.7 mm
07:37 AM 43.3°F6.3°C 34.2°F1.2°C 70% 5.0 mph N8.0 kmh N 15.0 mph24.1 kmh 29.67 in1004.7 mb 0.05 in1.3 mm 0.00 in0.0 mm 0.38 in9.7 mm
07:44 AM 43.3°F6.3°C 34.2°F1.2°C 70% 7.0 mph N11.3 kmh N 15.0 mph24.1 kmh 29.67 in1004.7 mb 0.04 in1.0 mm 0.00 in0.0 mm 0.38 in9.7 mm
07:51 AM 43.2°F6.2°C 34.2°F1.2°C 70% 5.0 mph N8.0 kmh N 15.0 mph24.1 kmh 29.68 in1005.1 mb 0.04 in1.0 mm 0.00 in0.0 mm 0.38 in9.7 mm
07:58 AM 43.2°F6.2°C 34.0°F1.1°C 70% 5.0 mph N8.0 kmh N 13.0 mph20.9 kmh 29.68 in1005.1 mb 0.05 in1.3 mm 0.09 in2.3 mm 0.39 in9.9 mm
08:05 AM 43.2°F6.2°C 34.2°F1.2°C 70% 5.0 mph N8.0 kmh N 13.0 mph20.9 kmh 29.68 in1005.1 mb 0.05 in1.3 mm 0.00 in0.0 mm 0.39 in9.9 mm
08:12 AM 43.2°F6.2°C 34.0°F1.1°C 70% 5.0 mph N8.0 kmh N 11.0 mph17.7 kmh 29.68 in1005.1 mb 0.06 in1.5 mm 0.09 in2.3 mm 0.39 in9.9 mm
08:19 AM 43.2°F6.2°C 34.0°F1.1°C 70% 5.0 mph N8.0 kmh N 11.0 mph17.7 kmh 29.69 in1005.4 mb 0.02 in0.5 mm 0.00 in0.0 mm 0.39 in9.9 mm
08:26 AM 43.0°F6.1°C 33.8°F1.0°C 70% 5.0 mph N8.0 kmh N 20.0 mph32.2 kmh 29.69 in1005.4 mb 0.02 in0.5 mm 0.00 in0.0 mm 0.40 in10.2 mm
08:33 AM 43.0°F6.1°C 33.8°F1.0°C 70% 7.0 mph N11.3 kmh N 16.0 mph25.7 kmh 29.69 in1005.4 mb 0.03 in0.8 mm 0.09 in2.3 mm 0.41 in10.4 mm
08:40 AM 43.2°F6.2°C 34.0°F1.1°C 70% 7.0 mph N11.3 kmh N 19.0 mph30.6 kmh 29.68 in1005.1 mb 0.03 in0.8 mm 0.00 in0.0 mm 0.41 in10.4 mm
08:47 AM 43.3°F6.3°C 34.2°F1.2°C 70% 8.0 mph N12.9 kmh N 19.0 mph30.6 kmh 29.69 in1005.4 mb 0.03 in0.8 mm 0.00 in0.0 mm 0.41 in10.4 mm
08:54 AM 43.3°F6.3°C 34.2°F1.2°C 70% 7.0 mph N11.3 kmh N 16.0 mph25.7 kmh 29.69 in1005.4 mb 0.03 in0.8 mm 0.00 in0.0 mm 0.41 in10.4 mm
09:01 AM 43.3°F6.3°C 34.2°F1.2°C 70% 7.0 mph N11.3 kmh N 16.0 mph25.7 kmh 29.69 in1005.4 mb 0.03 in0.8 mm 0.00 in0.0 mm 0.42 in10.7 mm
09:08 AM 43.5°F6.4°C 34.5°F1.4°C 70% 7.0 mph N11.3 kmh N 16.0 mph25.7 kmh 29.69 in1005.4 mb 0.03 in0.8 mm 0.00 in0.0 mm 0.42 in10.7 mm
09:15 AM 43.9°F6.6°C 34.7°F1.5°C 70% 7.0 mph N11.3 kmh N 16.0 mph25.7 kmh 29.69 in1005.4 mb 0.02 in0.5 mm 0.00 in0.0 mm 0.42 in10.7 mm
09:22 AM 44.1°F6.7°C 34.9°F1.6°C 70% 7.0 mph N11.3 kmh N 17.0 mph27.4 kmh 29.69 in1005.4 mb 0.02 in0.5 mm 0.00 in0.0 mm 0.42 in10.7 mm
09:29 AM 44.4°F6.9°C 34.9°F1.6°C 69% 7.0 mph N11.3 kmh N 16.0 mph25.7 kmh 29.70 in1005.8 mb 0.01 in0.3 mm 0.00 in0.0 mm 0.42 in10.7 mm
09:36 AM 44.2°F6.8°C 34.7°F1.5°C 69% 5.0 mph N8.0 kmh N 16.0 mph25.7 kmh 29.70 in1005.8 mb 0.01 in0.3 mm 0.00 in0.0 mm 0.42 in10.7 mm
09:43 AM 44.2°F6.8°C 34.3°F1.3°C 68% 7.0 mph N11.3 kmh N 20.0 mph32.2 kmh 29.70 in1005.8 mb 0.01 in0.3 mm 0.00 in0.0 mm 0.42 in10.7 mm
09:51 AM 44.2°F6.8°C 34.0°F1.1°C 67% 8.0 mph N12.9 kmh N 20.0 mph32.2 kmh 29.70 in1005.8 mb 0.01 in0.3 mm 0.00 in0.0 mm 0.42 in10.7 mm
09:57 AM 44.4°F6.9°C 34.2°F1.2°C 67% 8.0 mph N12.9 kmh N 17.0 mph27.4 kmh 29.70 in1005.8 mb 0.00 in0.0 mm 0.00 in0.0 mm 0.42 in10.7 mm
10:04 AM 44.4°F6.9°C 34.2°F1.2°C 67% 7.0 mph N11.3 kmh N 23.0 mph37.0 kmh 29.71 in1006.1 mb 0.00 in0.0 mm 0.00 in0.0 mm 0.42 in10.7 mm
10:11 AM 44.4°F6.9°C 34.2°F1.2°C 67% 7.0 mph N11.3 kmh N 16.0 mph25.7 kmh 29.71 in1006.1 mb 0.00 in0.0 mm 0.00 in0.0 mm 0.42 in10.7 mm
10:18 AM 44.2°F6.8°C 34.0°F1.1°C 67% 7.0 mph N11.3 kmh N 15.0 mph24.1 kmh 29.71 in1006.1 mb 0.00 in0.0 mm 0.00 in0.0 mm 0.42 in10.7 mm
10:25 AM 44.4°F6.9°C 34.5°F1.4°C 68% 7.0 mph N11.3 kmh N 20.0 mph32.2 kmh 29.71 in1006.1 mb 0.01 in0.3 mm 0.09 in2.3 mm 0.43 in10.9 mm
10:32 AM 44.2°F6.8°C 34.0°F1.1°C 67% 8.0 mph N12.9 kmh N 20.0 mph32.2 kmh 29.71 in1006.1 mb 0.01 in0.3 mm 0.00 in0.0 mm 0.43 in10.9 mm
10:39 AM 44.1°F6.7°C 34.2°F1.2°C 68% 8.0 mph N12.9 kmh N 19.0 mph30.6 kmh 29.71 in1006.1 mb 0.01 in0.3 mm 0.00 in0.0 mm 0.43 in10.9 mm
10:46 AM 43.9°F6.6°C 34.3°F1.3°C 69% 7.0 mph N11.3 kmh N 16.0 mph25.7 kmh 29.71 in1006.1 mb 0.02 in0.5 mm 0.09 in2.3 mm 0.43 in10.9 mm
10:53 AM 44.1°F6.7°C 34.9°F1.6°C 70% 5.0 mph N8.0 kmh N 16.0 mph25.7 kmh 29.71 in1006.1 mb 0.02 in0.5 mm 0.00 in0.0 mm 0.44 in11.2 mm
11:00 AM 44.1°F6.7°C 34.9°F1.6°C 70% 5.0 mph N8.0 kmh N 19.0 mph30.6 kmh 29.72 in1006.4 mb 0.02 in0.5 mm 0.00 in0.0 mm 0.44 in11.2 mm
11:07 AM 44.1°F6.7°C 34.9°F1.6°C 70% 5.0 mph N8.0 kmh N 13.0 mph20.9 kmh 29.72 in1006.4 mb 0.02 in0.5 mm 0.00 in0.0 mm 0.44 in11.2 mm
11:14 AM 43.9°F6.6°C 34.3°F1.3°C 69% 5.0 mph N8.0 kmh N 12.0 mph19.3 kmh 29.72 in1006.4 mb 0.02 in0.5 mm 0.00 in0.0 mm 0.44 in11.2 mm
11:21 AM 43.9°F6.6°C 34.3°F1.3°C 69% 5.0 mph N8.0 kmh N 17.0 mph27.4 kmh 29.72 in1006.4 mb 0.02 in0.5 mm 0.00 in0.0 mm 0.44 in11.2 mm
11:28 AM 44.1°F6.7°C 34.5°F1.4°C 69% 5.0 mph N8.0 kmh N 17.0 mph27.4 kmh 29.72 in1006.4 mb 0.02 in0.5 mm 0.00 in0.0 mm 0.44 in11.2 mm
11:35 AM 44.1°F6.7°C 34.2°F1.2°C 68% 4.0 mph N6.4 kmh N 9.0 mph14.5 kmh 29.72 in1006.4 mb 0.02 in0.5 mm 0.00 in0.0 mm 0.44 in11.2 mm
11:42 AM 44.2°F6.8°C 34.0°F1.1°C 67% 5.0 mph N8.0 kmh N 13.0 mph20.9 kmh 29.72 in1006.4 mb 0.01 in0.3 mm 0.00 in0.0 mm 0.44 in11.2 mm
11:49 AM 44.2°F6.8°C 33.6°F0.9°C 66% 5.0 mph N8.0 kmh N 13.0 mph20.9 kmh 29.72 in1006.4 mb 0.01 in0.3 mm 0.00 in0.0 mm 0.44 in11.2 mm
11:56 AM 44.4°F6.9°C 33.8°F1.0°C 66% 4.0 mph N6.4 kmh N 13.0 mph20.9 kmh 29.73 in1006.8 mb 0.00 in0.0 mm 0.00 in0.0 mm 0.44 in11.2 mm
12:03 PM 44.4°F6.9°C 33.4°F0.8°C 65% 5.0 mph N8.0 kmh N 20.0 mph32.2 kmh 29.73 in1006.8 mb 0.00 in0.0 mm 0.00 in0.0 mm 0.44 in11.2 mm
12:10 PM 44.4°F6.9°C 33.4°F0.8°C 65% 5.0 mph N8.0 kmh N 20.0 mph32.2 kmh 29.73 in1006.8 mb 0.00 in0.0 mm 0.00 in0.0 mm 0.44 in11.2 mm
12:17 PM 44.4°F6.9°C 33.4°F0.8°C 65% 4.0 mph N6.4 kmh N 16.0 mph25.7 kmh 29.73 in1006.8 mb 0.00 in0.0 mm 0.00 in0.0 mm 0.44 in11.2 mm
12:24 PM 44.2°F6.8°C 32.7°F0.4°C 64% 4.0 mph N6.4 kmh N 12.0 mph19.3 kmh 29.73 in1006.8 mb 0.00 in0.0 mm 0.00 in0.0 mm 0.44 in11.2 mm
12:39 PM 44.4°F6.9°C 33.4°F0.8°C 65% 4.0 mph N6.4 kmh N 13.0 mph20.9 kmh 29.73 in1006.8 mb 0.00 in0.0 mm 0.00 in0.0 mm 0.44 in11.2 mm
12:46 PM 44.4°F6.9°C 32.9°F0.5°C 64% 4.0 mph N6.4 kmh N 13.0 mph20.9 kmh 29.74 in1007.1 mb 0.00 in0.0 mm 0.00 in0.0 mm 0.44 in11.2 mm
12:53 PM 44.4°F6.9°C 33.4°F0.8°C 65% 4.0 mph N6.4 kmh N 12.0 mph19.3 kmh 29.75 in1007.5 mb 0.00 in0.0 mm 0.00 in0.0 mm 0.44 in11.2 mm
01:00 PM 44.6°F7.0°C 33.6°F0.9°C 65% 4.0 mph N6.4 kmh N 15.0 mph24.1 kmh 29.75 in1007.5 mb 0.00 in0.0 mm 0.00 in0.0 mm 0.44 in11.2 mm
01:07 PM 44.6°F7.0°C 33.6°F0.9°C 65% 5.0 mph N8.0 kmh N 13.0 mph20.9 kmh 29.75 in1007.5 mb 0.00 in0.0 mm 0.00 in0.0 mm 0.44 in11.2 mm
01:14 PM 44.8°F7.1°C 33.3°F0.7°C 64% 5.0 mph N8.0 kmh N 13.0 mph20.9 kmh 29.75 in1007.5 mb 0.00 in0.0 mm 0.00 in0.0 mm 0.44 in11.2 mm
01:21 PM 44.8°F7.1°C 33.6°F0.9°C 65% 4.0 mph N6.4 kmh N 9.0 mph14.5 kmh 29.75 in1007.5 mb 0.00 in0.0 mm 0.00 in0.0 mm 0.44 in11.2 mm
01:28 PM 44.8°F7.1°C 33.6°F0.9°C 65% 4.0 mph N6.4 kmh N 12.0 mph19.3 kmh 29.75 in1007.5 mb 0.00 in0.0 mm 0.00 in0.0 mm 0.44 in11.2 mm
01:35 PM 44.6°F7.0°C 33.6°F0.9°C 65% 4.0 mph N6.4 kmh N 12.0 mph19.3 kmh 29.75 in1007.5 mb 0.00 in0.0 mm 0.00 in0.0 mm 0.44 in11.2 mm
01:42 PM 44.6°F7.0°C 33.6°F0.9°C 65% 5.0 mph N8.0 kmh N 13.0 mph20.9 kmh 29.75 in1007.5 mb 0.00 in0.0 mm 0.00 in0.0 mm 0.44 in11.2 mm
01:49 PM 44.6°F7.0°C 33.1°F0.6°C 64% 5.0 mph N8.0 kmh N 12.0 mph19.3 kmh 29.75 in1007.5 mb 0.00 in0.0 mm 0.00 in0.0 mm 0.44 in11.2 mm
01:56 PM 44.8°F7.1°C 33.3°F0.7°C 64% 5.0 mph N8.0 kmh N 15.0 mph24.1 kmh 29.76 in1007.8 mb 0.00 in0.0 mm 0.00 in0.0 mm 0.44 in11.2 mm
02:03 PM 44.6°F7.0°C 33.1°F0.6°C 64% 5.0 mph N8.0 kmh N 17.0 mph27.4 kmh 29.76 in1007.8 mb 0.00 in0.0 mm 0.00 in0.0 mm 0.44 in11.2 mm
02:10 PM 44.8°F7.1°C 33.3°F0.7°C 64% 7.0 mph N11.3 kmh N 16.0 mph25.7 kmh 29.76 in1007.8 mb 0.00 in0.0 mm 0.00 in0.0 mm 0.44 in11.2 mm
02:17 PM 44.8°F7.1°C 33.4°F0.8°C 64% 5.0 mph N8.0 kmh N 13.0 mph20.9 kmh 29.76 in1007.8 mb 0.00 in0.0 mm 0.00 in0.0 mm 0.44 in11.2 mm
02:24 PM 44.8°F7.1°C 33.3°F0.7°C 64% 4.0 mph N6.4 kmh N 9.0 mph14.5 kmh 29.76 in1007.8 mb 0.00 in0.0 mm 0.00 in0.0 mm 0.44 in11.2 mm
02:31 PM 44.8°F7.1°C 33.4°F0.8°C 64% 4.0 mph N6.4 kmh N 13.0 mph20.9 kmh 29.76 in1007.8 mb 0.00 in0.0 mm 0.00 in0.0 mm 0.44 in11.2 mm
02:38 PM 44.8°F7.1°C 33.4°F0.8°C 64% 5.0 mph N8.0 kmh N 13.0 mph20.9 kmh 29.76 in1007.8 mb 0.00 in0.0 mm 0.00 in0.0 mm 0.44 in11.2 mm
02:45 PM 45.0°F7.2°C 33.4°F0.8°C 64% 5.0 mph N8.0 kmh N 16.0 mph25.7 kmh 29.76 in1007.8 mb 0.00 in0.0 mm 0.00 in0.0 mm 0.44 in11.2 mm
02:52 PM 45.0°F7.2°C 33.4°F0.8°C 64% 4.0 mph N6.4 kmh N 12.0 mph19.3 kmh 29.76 in1007.8 mb 0.00 in0.0 mm 0.00 in0.0 mm 0.44 in11.2 mm
02:59 PM 44.8°F7.1°C 33.8°F1.0°C 65% 5.0 mph N8.0 kmh N 16.0 mph25.7 kmh 29.77 in1008.1 mb 0.00 in0.0 mm 0.00 in0.0 mm 0.44 in11.2 mm
03:06 PM 44.8°F7.1°C 33.8°F1.0°C 65% 5.0 mph N8.0 kmh N 13.0 mph20.9 kmh 29.77 in1008.1 mb 0.00 in0.0 mm 0.00 in0.0 mm 0.44 in11.2 mm
03:13 PM 44.8°F7.1°C 33.6°F0.9°C 65% 5.0 mph N8.0 kmh N 15.0 mph24.1 kmh 29.77 in1008.1 mb 0.00 in0.0 mm 0.00 in0.0 mm 0.44 in11.2 mm
03:21 PM 44.8°F7.1°C 33.6°F0.9°C 65% 4.0 mph N6.4 kmh N 15.0 mph24.1 kmh 29.78 in1008.5 mb 0.00 in0.0 mm 0.00 in0.0 mm 0.44 in11.2 mm
03:36 PM 44.8°F7.1°C 33.8°F1.0°C 65% 4.0 mph N6.4 kmh N 12.0 mph19.3 kmh 29.78 in1008.5 mb 0.00 in0.0 mm 0.00 in0.0 mm 0.44 in11.2 mm
03:42 PM 44.8°F7.1°C 33.4°F0.8°C 64% 4.0 mph N6.4 kmh N 12.0 mph19.3 kmh 29.78 in1008.5 mb 0.00 in0.0 mm 0.00 in0.0 mm 0.44 in11.2 mm
03:49 PM 44.8°F7.1°C 33.4°F0.8°C 64% 4.0 mph N6.4 kmh N 12.0 mph19.3 kmh 29.78 in1008.5 mb 0.00 in0.0 mm 0.00 in0.0 mm 0.44 in11.2 mm
03:56 PM 44.8°F7.1°C 33.4°F0.8°C 64% 5.0 mph N8.0 kmh N 15.0 mph24.1 kmh 29.79 in1008.8 mb 0.00 in0.0 mm 0.00 in0.0 mm 0.44 in11.2 mm
04:03 PM 44.8°F7.1°C 33.4°F0.8°C 64% 5.0 mph N8.0 kmh N 16.0 mph25.7 kmh 29.79 in1008.8 mb 0.00 in0.0 mm 0.00 in0.0 mm 0.44 in11.2 mm
04:10 PM 44.8°F7.1°C 33.4°F0.8°C 64% 5.0 mph N8.0 kmh N 16.0 mph25.7 kmh 29.79 in1008.8 mb 0.00 in0.0 mm 0.00 in0.0 mm 0.44 in11.2 mm
04:17 PM 44.8°F7.1°C 33.3°F0.7°C 64% 5.0 mph N8.0 kmh N 16.0 mph25.7 kmh 29.79 in1008.8 mb 0.00 in0.0 mm 0.00 in0.0 mm 0.44 in11.2 mm
04:24 PM 44.8°F7.1°C 33.3°F0.7°C 64% 5.0 mph N8.0 kmh N 13.0 mph20.9 kmh 29.79 in1008.8 mb 0.00 in0.0 mm 0.00 in0.0 mm 0.44 in11.2 mm
04:31 PM 44.8°F7.1°C 32.9°F0.5°C 63% 7.0 mph N11.3 kmh N 20.0 mph32.2 kmh 29.80 in1009.1 mb 0.00 in0.0 mm 0.00 in0.0 mm 0.44 in11.2 mm
04:38 PM 44.8°F7.1°C 32.9°F0.5°C 63% 5.0 mph N8.0 kmh N 9.0 mph14.5 kmh 29.80 in1009.1 mb 0.00 in0.0 mm 0.00 in0.0 mm 0.44 in11.2 mm
04:45 PM 44.8°F7.1°C 32.9°F0.5°C 63% 7.0 mph N11.3 kmh N 13.0 mph20.9 kmh 29.80 in1009.1 mb 0.00 in0.0 mm 0.00 in0.0 mm 0.44 in11.2 mm
04:52 PM 44.8°F7.1°C 32.9°F0.5°C 63% 5.0 mph N8.0 kmh N 15.0 mph24.1 kmh 29.80 in1009.1 mb 0.00 in0.0 mm 0.00 in0.0 mm 0.44 in11.2 mm
04:59 PM 44.8°F7.1°C 32.9°F0.5°C 63% 8.0 mph N12.9 kmh N 16.0 mph25.7 kmh 29.81 in1009.5 mb 0.01 in0.3 mm 0.09 in2.3 mm 0.45 in11.4 mm
05:06 PM 44.8°F7.1°C 32.9°F0.5°C 63% 7.0 mph N11.3 kmh N 16.0 mph25.7 kmh 29.81 in1009.5 mb 0.01 in0.3 mm 0.00 in0.0 mm 0.45 in11.4 mm
05:13 PM 44.8°F7.1°C 32.9°F0.5°C 63% 5.0 mph N8.0 kmh N 16.0 mph25.7 kmh 29.82 in1009.8 mb 0.01 in0.3 mm 0.00 in0.0 mm 0.45 in11.4 mm
05:20 PM 44.8°F7.1°C 32.9°F0.5°C 63% 5.0 mph N8.0 kmh N 16.0 mph25.7 kmh 29.82 in1009.8 mb 0.01 in0.3 mm 0.00 in0.0 mm 0.45 in11.4 mm
05:27 PM 44.8°F7.1°C 32.5°F0.3°C 62% 7.0 mph N11.3 kmh N 15.0 mph24.1 kmh 29.82 in1009.8 mb 0.01 in0.3 mm 0.00 in0.0 mm 0.45 in11.4 mm
05:34 PM 44.6°F7.0°C 32.7°F0.4°C 63% 5.0 mph N8.0 kmh N 12.0 mph19.3 kmh 29.82 in1009.8 mb 0.01 in0.3 mm 0.00 in0.0 mm 0.45 in11.4 mm
05:41 PM 44.6°F7.0°C 32.7°F0.4°C 63% 5.0 mph N8.0 kmh N 15.0 mph24.1 kmh 29.83 in1010.2 mb 0.01 in0.3 mm 0.00 in0.0 mm 0.45 in11.4 mm
05:48 PM 44.4°F6.9°C 32.4°F0.2°C 62% 5.0 mph N8.0 kmh N 15.0 mph24.1 kmh 29.83 in1010.2 mb 0.01 in0.3 mm 0.00 in0.0 mm 0.45 in11.4 mm
05:55 PM 44.4°F6.9°C 32.4°F0.2°C 62% 5.0 mph N8.0 kmh N 20.0 mph32.2 kmh 29.83 in1010.2 mb 0.01 in0.3 mm 0.00 in0.0 mm 0.45 in11.4 mm
06:02 PM 44.4°F6.9°C 32.4°F0.2°C 62% 7.0 mph N11.3 kmh N 20.0 mph32.2 kmh 29.83 in1010.2 mb 0.00 in0.0 mm 0.00 in0.0 mm 0.45 in11.4 mm
06:09 PM 44.4°F6.9°C 32.4°F0.2°C 62% 7.0 mph N11.3 kmh N 17.0 mph27.4 kmh 29.83 in1010.2 mb 0.00 in0.0 mm 0.00 in0.0 mm 0.45 in11.4 mm
06:16 PM 44.4°F6.9°C 32.4°F0.2°C 62% 5.0 mph N8.0 kmh N 17.0 mph27.4 kmh 29.84 in1010.5 mb 0.00 in0.0 mm 0.00 in0.0 mm 0.45 in11.4 mm
06:23 PM 44.4°F6.9°C 32.2°F0.1°C 62% 5.0 mph N8.0 kmh N 16.0 mph25.7 kmh 29.84 in1010.5 mb 0.00 in0.0 mm 0.00 in0.0 mm 0.45 in11.4 mm
06:30 PM 44.2°F6.8°C 32.2°F0.1°C 62% 5.0 mph N8.0 kmh N 16.0 mph25.7 kmh 29.83 in1010.2 mb 0.00 in0.0 mm 0.00 in0.0 mm 0.45 in11.4 mm
06:37 PM 44.4°F6.9°C 32.2°F0.1°C 62% 5.0 mph N8.0 kmh N 15.0 mph24.1 kmh 29.84 in1010.5 mb 0.00 in0.0 mm 0.00 in0.0 mm 0.45 in11.4 mm
06:44 PM 44.4°F6.9°C 32.2°F0.1°C 62% 5.0 mph N8.0 kmh N 15.0 mph24.1 kmh 29.84 in1010.5 mb 0.00 in0.0 mm 0.00 in0.0 mm 0.45 in11.4 mm
06:51 PM 44.4°F6.9°C 32.2°F0.1°C 62% 5.0 mph N8.0 kmh N 15.0 mph24.1 kmh 29.84 in1010.5 mb 0.00 in0.0 mm 0.00 in0.0 mm 0.45 in11.4 mm
06:58 PM 44.4°F6.9°C 31.8°F-0.1°C 61% 5.0 mph N8.0 kmh N 13.0 mph20.9 kmh 29.84 in1010.5 mb 0.00 in0.0 mm 0.00 in0.0 mm 0.45 in11.4 mm
07:05 PM 44.6°F7.0°C 32.0°F0.0°C 61% 5.0 mph N8.0 kmh N 13.0 mph20.9 kmh 29.84 in1010.5 mb 0.00 in0.0 mm 0.00 in0.0 mm 0.45 in11.4 mm
07:12 PM 44.6°F7.0°C 31.6°F-0.2°C 60% 5.0 mph N8.0 kmh N 15.0 mph24.1 kmh 29.84 in1010.5 mb 0.00 in0.0 mm 0.00 in0.0 mm 0.45 in11.4 mm
07:19 PM 44.8°F7.1°C 31.6°F-0.2°C 60% 5.0 mph N8.0 kmh N 15.0 mph24.1 kmh 29.85 in1010.8 mb 0.00 in0.0 mm 0.00 in0.0 mm 0.45 in11.4 mm
07:26 PM 44.8°F7.1°C 31.8°F-0.1°C 60% 5.0 mph N8.0 kmh N 13.0 mph20.9 kmh 29.85 in1010.8 mb 0.00 in0.0 mm 0.00 in0.0 mm 0.45 in11.4 mm
07:33 PM 44.8°F7.1°C 31.8°F-0.1°C 60% 5.0 mph N8.0 kmh N 13.0 mph20.9 kmh 29.84 in1010.5 mb 0.00 in0.0 mm 0.00 in0.0 mm 0.45 in11.4 mm
07:40 PM 44.8°F7.1°C 31.8°F-0.1°C 60% 5.0 mph N8.0 kmh N 12.0 mph19.3 kmh 29.84 in1010.5 mb 0.00 in0.0 mm 0.00 in0.0 mm 0.45 in11.4 mm
07:47 PM 44.8°F7.1°C 31.8°F-0.1°C 60% 4.0 mph N6.4 kmh N 11.0 mph17.7 kmh 29.84 in1010.5 mb 0.00 in0.0 mm 0.00 in0.0 mm 0.45 in11.4 mm
07:54 PM 44.8°F7.1°C 31.8°F-0.1°C 60% 4.0 mph N6.4 kmh N 11.0 mph17.7 kmh 29.84 in1010.5 mb 0.00 in0.0 mm 0.00 in0.0 mm 0.45 in11.4 mm
08:01 PM 44.8°F7.1°C 31.6°F-0.2°C 60% 3.0 mph N4.8 kmh N 8.0 mph12.9 kmh 29.84 in1010.5 mb 0.00 in0.0 mm 0.00 in0.0 mm 0.45 in11.4 mm
08:08 PM 44.6°F7.0°C 31.6°F-0.2°C 60% 4.0 mph N6.4 kmh N 8.0 mph12.9 kmh 29.85 in1010.8 mb 0.00 in0.0 mm 0.00 in0.0 mm 0.45 in11.4 mm
08:15 PM 44.2°F6.8°C 31.6°F-0.2°C 61% 4.0 mph N6.4 kmh N 8.0 mph12.9 kmh 29.85 in1010.8 mb 0.00 in0.0 mm 0.00 in0.0 mm 0.45 in11.4 mm
08:22 PM 44.1°F6.7°C 31.5°F-0.3°C 61% 4.0 mph N6.4 kmh N 8.0 mph12.9 kmh 29.85 in1010.8 mb 0.00 in0.0 mm 0.00 in0.0 mm 0.45 in11.4 mm
08:29 PM 43.9°F6.6°C 30.9°F-0.6°C 60% 4.0 mph N6.4 kmh N 13.0 mph20.9 kmh 29.85 in1010.8 mb 0.00 in0.0 mm 0.00 in0.0 mm 0.45 in11.4 mm
08:36 PM 43.7°F6.5°C 31.1°F-0.5°C 61% 4.0 mph N6.4 kmh N 13.0 mph20.9 kmh 29.85 in1010.8 mb 0.00 in0.0 mm 0.00 in0.0 mm 0.45 in11.4 mm
08:43 PM 43.3°F6.3°C 30.9°F-0.6°C 61% 3.0 mph N4.8 kmh N 9.0 mph14.5 kmh 29.85 in1010.8 mb 0.00 in0.0 mm 0.00 in0.0 mm 0.45 in11.4 mm
08:52 PM 43.0°F6.1°C 30.4°F-0.9°C 61% 3.0 mph N4.8 kmh N 8.0 mph12.9 kmh 29.86 in1011.2 mb 0.00 in0.0 mm 0.00 in0.0 mm 0.45 in11.4 mm
08:57 PM 42.8°F6.0°C 30.2°F-1.0°C 61% 3.0 mph N4.8 kmh N 8.0 mph12.9 kmh 29.86 in1011.2 mb 0.00 in0.0 mm 0.00 in0.0 mm 0.45 in11.4 mm
09:04 PM 42.6°F5.9°C 30.6°F-0.8°C 62% 3.0 mph N4.8 kmh N 5.0 mph8.0 kmh 29.86 in1011.2 mb 0.00 in0.0 mm 0.00 in0.0 mm 0.45 in11.4 mm
09:11 PM 42.4°F5.8°C 30.4°F-0.9°C 62% 1.0 mph N1.6 kmh N 7.0 mph11.3 kmh 29.86 in1011.2 mb 0.00 in0.0 mm 0.00 in0.0 mm 0.45 in11.4 mm
09:18 PM 42.3°F5.7°C 30.6°F-0.8°C 63% 1.0 mph N1.6 kmh N 7.0 mph11.3 kmh 29.86 in1011.2 mb 0.00 in0.0 mm 0.00 in0.0 mm 0.45 in11.4 mm
09:25 PM 42.3°F5.7°C 30.6°F-0.8°C 63% 1.0 mph N1.6 kmh N 4.0 mph6.4 kmh 29.86 in1011.2 mb 0.00 in0.0 mm 0.00 in0.0 mm 0.45 in11.4 mm
09:32 PM 41.7°F5.4°C 30.6°F-0.8°C 64% 1.0 mph N1.6 kmh N 3.0 mph4.8 kmh 29.86 in1011.2 mb 0.00 in0.0 mm 0.00 in0.0 mm 0.45 in11.4 mm
09:39 PM 41.5°F5.3°C 30.7°F-0.7°C 65% 1.0 mph N1.6 kmh N 4.0 mph6.4 kmh 29.86 in1011.2 mb 0.00 in0.0 mm 0.00 in0.0 mm 0.45 in11.4 mm
09:46 PM 41.5°F5.3°C 30.7°F-0.7°C 65% 1.0 mph N1.6 kmh N 5.0 mph8.0 kmh 29.87 in1011.5 mb 0.00 in0.0 mm 0.00 in0.0 mm 0.45 in11.4 mm
09:53 PM 41.9°F5.5°C 30.9°F-0.6°C 65% 1.0 mph N1.6 kmh N 5.0 mph8.0 kmh 29.86 in1011.2 mb 0.00 in0.0 mm 0.00 in0.0 mm 0.45 in11.4 mm
10:00 PM 42.3°F5.7°C 31.3°F-0.4°C 65% 3.0 mph N4.8 kmh N 7.0 mph11.3 kmh 29.86 in1011.2 mb 0.00 in0.0 mm 0.00 in0.0 mm 0.45 in11.4 mm
10:07 PM 42.8°F6.0°C 31.5°F-0.3°C 64% 3.0 mph N4.8 kmh N 7.0 mph11.3 kmh 29.87 in1011.5 mb 0.00 in0.0 mm 0.00 in0.0 mm 0.45 in11.4 mm
10:14 PM 42.8°F6.0°C 31.8°F-0.1°C 65% 1.0 mph N1.6 kmh N 5.0 mph8.0 kmh 29.87 in1011.5 mb 0.00 in0.0 mm 0.00 in0.0 mm 0.45 in11.4 mm
10:21 PM 42.8°F6.0°C 31.8°F-0.1°C 65% 1.0 mph N1.6 kmh N 7.0 mph11.3 kmh 29.86 in1011.2 mb 0.00 in0.0 mm 0.00 in0.0 mm 0.45 in11.4 mm
10:28 PM 43.0°F6.1°C 32.0°F0.0°C 65% 1.0 mph N1.6 kmh N 5.0 mph8.0 kmh 29.87 in1011.5 mb 0.00 in0.0 mm 0.00 in0.0 mm 0.45 in11.4 mm
10:35 PM 43.0°F6.1°C 32.0°F0.0°C 65% 3.0 mph N4.8 kmh N 5.0 mph8.0 kmh 29.87 in1011.5 mb 0.00 in0.0 mm 0.00 in0.0 mm 0.45 in11.4 mm
10:42 PM 43.2°F6.2°C 32.2°F0.1°C 65% 3.0 mph N4.8 kmh N 5.0 mph8.0 kmh 29.87 in1011.5 mb 0.00 in0.0 mm 0.00 in0.0 mm 0.45 in11.4 mm
10:49 PM 43.2°F6.2°C 32.5°F0.3°C 66% 1.0 mph N1.6 kmh N 5.0 mph8.0 kmh 29.87 in1011.5 mb 0.00 in0.0 mm 0.00 in0.0 mm 0.45 in11.4 mm
10:56 PM 43.2°F6.2°C 32.5°F0.3°C 66% 1.0 mph N1.6 kmh N 4.0 mph6.4 kmh 29.87 in1011.5 mb 0.00 in0.0 mm 0.00 in0.0 mm 0.45 in11.4 mm
11:13 PM 43.3°F6.3°C 32.7°F0.4°C 66% 1.0 mph N1.6 kmh N 5.0 mph8.0 kmh 29.87 in1011.5 mb 0.00 in0.0 mm 0.00 in0.0 mm 0.22 in5.6 mm
11:19 PM 43.5°F6.4°C 32.9°F0.5°C 66% 1.0 mph N1.6 kmh N 5.0 mph8.0 kmh 29.87 in1011.5 mb 0.00 in0.0 mm 0.00 in0.0 mm 0.22 in5.6 mm
11:26 PM 43.5°F6.4°C 32.9°F0.5°C 66% 1.0 mph NNW1.6 kmh NNW 4.0 mph6.4 kmh 29.87 in1011.5 mb 0.00 in0.0 mm 0.00 in0.0 mm 0.22 in5.6 mm
11:33 PM 43.7°F6.5°C 33.1°F0.6°C 66% 1.0 mph WSW1.6 kmh WSW 5.0 mph8.0 kmh 29.87 in1011.5 mb 0.00 in0.0 mm 0.00 in0.0 mm 0.22 in5.6 mm
11:40 PM 43.7°F6.5°C 32.7°F0.4°C 65% 1.0 mph W1.6 kmh W 4.0 mph6.4 kmh 29.87 in1011.5 mb 0.00 in0.0 mm 0.00 in0.0 mm 0.22 in5.6 mm
11:47 PM 43.3°F6.3°C 32.4°F0.2°C 65% 1.0 mph WSW1.6 kmh WSW 4.0 mph6.4 kmh 29.87 in1011.5 mb 0.00 in0.0 mm 0.00 in0.0 mm 0.22 in5.6 mm
11:54 PM 43.2°F6.2°C 32.5°F0.3°C 66% 1.0 mph W1.6 kmh W 4.0 mph6.4 kmh 29.87 in1011.5 mb 0.00 in0.0 mm 0.00 in0.0 mm 0.22 in5.6 mm